Terminal Aerodrome Forecast
Issued by NWS

Home | Current Version | Previous Version | Text Only | Print | Product List | Glossary On
Versions: 1 2 3 4 5 6 7 8 9 10 11 12 13 14 15
000
FTUS46 KLOX 182300 RRA
TAFWJF
TAF
KWJF 182340Z 1900/1924 21018G24KT P6SM SKC
     FM190200 23015KT P6SM SKC
     FM190500 22010KT P6SM SKC
     FM191600 25005KT P6SM SKC
     FM192000 23011KT P6SM SCT250
     FM192200 23015G20KT P6SM SCT250=

USA.gov is the U.S. government's official web portal to all federal, state and local government web resources and services.